Terminal Aerodrome Forecast
Issued by NWS

Home | Current Version | Previous Version | Text Only | Print | Product List | Glossary On
Versions: 1 2 3 4 5 6 7 8 9 10 11 12 13 14 15 16 17 18 19 20
178
FTUS46 KMFR 200529
TAFOTH
TAF
KOTH 200529Z 2006/2106 16009KT P6SM -RA SCT020 OVC035
     FM201100 18015G24KT P6SM -RA OVC020 WS020/18040KT
     FM201500 18024G32KT P6SM -RA BKN015 OVC025 WS020/18050KT
     FM202100 24014G25KT P6SM -SHRA OVC030
     FM210000 17006KT P6SM -SHRA SCT015 OVC035=

USA.gov is the U.S. government's official web portal to all federal, state and local government web resources and services.